Parsons Landing, Santa Catalina Island Weather observations

Data are for 10 minute period ending at time listed.
 Day   Time   Solar   Ave.   Ave.  Ave.  Vector    Max.   Stn.   Total 
  of    of     Rad.   Air    Rel.  Wind   Wind     Wind   Baro. Precip. 
Year   Day            Temp.  Hum.  Speed  Dir.     Gust   Pres.         
2015   (PST)   W/m2    F      %     mph   deg.      mph    mb.    in.   
------------------------------------------------------------------------
 210    0:00    0.0    65   93.2     2    163.7     3.0    999.0   0.00  
 210    0:10    0.0    65   92.8     2    168.1     4.8    999.0   0.00  
 210    0:20    0.0    65   92.8     2    187.7     3.0    999.0   0.00  
 210    0:30    0.0    65   92.7     3    219.5     4.8    999.0   0.00  
 210    0:40    0.0    65   92.8     2    235.8     3.6    999.0   0.00  
 210    0:50    0.0    65   92.7     1    226.2     1.8    999.0   0.00  
 210    1:00    0.0    65   92.4     2    136.6     3.6    999.0   0.00  
 210    1:10    0.0    65   92.3     3    171.2     4.8    999.0   0.00  
 210    1:20    0.0    65   91.7     5    224.3     7.8    999.0   0.00  
 210    1:30    0.0    65   91.8     4    222.1     7.2    999.0   0.00  
 210    1:40    0.0    65   92.1     3    212.3     4.2    999.0   0.00  
 210    1:50    0.0    65   91.8     5    227.6     7.2    999.0   0.00  
 210    2:00    0.0    64   91.8     5    208.0     7.2    999.0   0.00  
 210    2:10    0.0    64   91.6     4    206.1     6.6    999.0   0.00  
 210    2:20    0.0    65   91.3     2    199.9     5.4    999.0   0.00  
 210    2:30    0.0    65   90.9     2    208.4     3.6    999.0   0.00  
 210    2:40    0.0    65   90.6     2    173.8     4.8    999.0   0.00  
 210    2:50    0.0    65   90.2     2    151.1     3.6    999.0   0.00  
 210    3:00    0.0    65   90.0     2    174.9     4.2    999.0   0.00  
 210    3:10    0.0    65   90.1     2    216.1     3.6    999.0   0.00  
 210    3:20    0.0    65   90.0     1     98.2     2.4    999.0   0.00  
 210    3:30    0.0    65   90.1     2    348.0     4.2    999.0   0.00  
 210    3:40    0.0    65   90.2     2     73.0     3.0    999.0   0.00  
 210    3:50    0.0    65   90.2     2    160.4     3.6    999.0   0.00  
 210    4:00    0.0    65   90.4     1     84.9     2.4    999.0   0.00  
 210    4:10    0.0    65   90.3     1     62.5     3.0    999.0   0.00  
 210    4:20    0.0    65   90.3     1     98.2     2.4    999.0   0.00  
 210    4:30    0.0    65   90.3     2    149.2     4.8    999.0   0.00  
 210    4:40    0.0    65   90.4     1    151.1     3.0    999.0   0.00  
 210    4:50    0.0    65   90.3     1    284.8     2.4    999.0   0.00  
 210    5:00    0.0    65   90.4     2    286.8     3.0    999.0   0.00  
 210    5:10    0.0    65   90.2     2    205.7     5.4    999.0   0.00  
 210    5:20    3.0    64   90.0     4    208.5     6.0    999.0   0.00  
 210    5:30    6.0    64   90.1     4    206.7     6.6    999.0   0.00  
 210    5:40   11.0    64   89.7     5    223.2     6.0    999.0   0.00  
 210    5:50   17.0    64   89.3     5    218.1     6.0    999.0   0.00  
 210    6:00   25.0    64   88.7     4    219.5     6.6    999.0   0.00  
 210    6:10   36.0    65   88.3     4    218.7     6.0    999.0   0.00  
 210    6:20   42.0    65   87.4     5    226.1     7.2    999.0   0.00  
 210    6:30   51.0    65   87.4     5    226.3     7.8    999.0   0.00  
 210    6:40   61.0    65   86.5     3    225.3     4.8    999.0   0.00  
 210    6:50   69.0    66   85.6     4    301.1     7.2    999.0   0.00  
 210    7:00   87.0    66   84.9     6    325.0     7.8    999.0   0.00  
 210    7:10   98.0    66   84.4     5    323.1     7.8    999.0   0.00  
 210    7:20  128.0    66   83.5     5    310.0     8.4    999.0   0.00  
 210    7:30  151.0    67   82.4     6    323.1     8.4    999.0   0.00  
 210    7:40  178.0    67   81.5     5    322.1     7.8    999.0   0.00  
 210    7:50  213.0    68   80.4     5    314.2     9.0    999.0   0.00  
 210    8:00  248.0    68   80.1     7    325.7     9.6    999.0   0.00  
 210    8:10  340.0    69   78.4     5    313.2     8.4    999.0   0.00  
 210    8:20  389.0    69   77.0     5    333.0     8.4    999.0   0.00  
 210    8:30  479.0    70   75.3     6    327.9     9.0    999.0   0.00  
 210    8:40  494.0    70   75.1     6    334.9     9.0    999.0   0.00  
 210    8:50  512.0    70   74.1     6    324.1    10.2    999.0   0.00  
 210    9:00  539.0    70   75.4     6    328.2    10.2    999.0   0.00  
 210    9:10  560.0    70   74.3     7    328.7    10.8    999.0   0.00  
 210    9:20  581.0    70   74.5     7    330.6    10.2    999.0   0.00  
 210    9:30  599.0    70   73.9     7    326.1    10.8    999.0   0.00  
 210    9:40  613.0    70   73.9     6    322.1    10.8    999.0   0.00  
 210    9:50  627.0    71   72.6     7    322.7    10.2    999.0   0.00  
 210   10:00  642.0    71   72.6     7    310.0    11.3    999.0   0.00  
 210   10:10  656.0    71   72.4     8    317.9    11.9    999.0   0.00  
 210   10:20  670.0    72   70.8     8    318.0    11.9    999.0   0.00  
 210   10:30  683.0    72   71.4     6    315.7    10.2    999.0   0.00  
 210   10:40  694.0    72   71.5     7    304.2    11.3    999.0   0.00  
 210   10:50  705.0    72   71.2     7    303.6    11.3    999.0   0.00  
 210   11:00  714.0    72   70.4     7    308.0    11.3    999.0   0.00  
 210   11:10  723.0    72   70.9     8    316.5    11.9    999.0   0.00  
 210   11:20  730.0    72   71.8     9    322.7    12.5    999.0   0.00  
 210   11:30  736.0    73   70.3     9    325.2    14.9    999.0   0.00  
 210   11:40  742.0    73   69.8     8    338.0    13.7    999.0   0.00  
 210   11:50  747.0    74   67.4     7    344.7    10.8    999.0   0.00  
 210   12:00  750.0    74   67.2     7    344.0    10.8    999.0   0.00  
 210   12:10  751.0    75   66.4     7    353.8    12.5    999.0   0.00  
 210   12:20  751.0    75   64.5     4     46.8    10.2    999.0   0.00  
 210   12:30  750.0    78   59.7     3    348.3     8.4    999.0   0.00  
 210   12:40  746.0    76   63.1     6    303.9    15.5    999.0   0.00  
 210   12:50  741.0    76   62.2     6    326.9    17.9    999.0   0.00  
 210   13:00  734.0    77   61.4     7      0.4    12.5    999.0   0.00  
 210   13:10  726.0    77   60.8     8    319.8    18.5    999.0   0.00  
 210   13:20  715.0    75   65.0     9    239.7    14.9    999.0   0.00  
 210   13:30  705.0    74   66.2     9    227.6    15.5    999.0   0.00  
 210   13:40  694.0    75   64.4     9    234.7    14.9    999.0   0.00  
 210   13:50  683.0    76   62.4     7    254.1    11.9    999.0   0.00  
 210   14:00  670.0    78   59.4     8    316.6    11.9    999.0   0.00  
 210   14:10  654.0    78   59.5     8    301.8    11.3    999.0   0.00  
 210   14:20  639.0    78   59.1     8    306.0    11.3    999.0   0.00  
 210   14:30  620.0    78   58.7     8    318.3    13.1    999.0   0.00  
 210   14:40  602.0    78   59.5     8    313.1    13.1    999.0   0.00  
 210   14:50  582.0    76   62.7    10    316.9    14.3    999.0   0.00  
 210   15:00  561.0    76   63.6     8    313.4    13.7    999.0   0.00  
 210   15:10  540.0    76   64.4     8    308.4    12.5    999.0   0.00  
 210   15:20  518.0    76   63.5     8    300.3    12.5    999.0   0.00  
 210   15:30  495.0    75   65.7     9    296.0    14.9    999.0   0.00  
 210   15:40  471.0    73   69.6    10    297.8    14.3    999.0   0.00  
 210   15:50  447.0    73   71.1    10    297.5    15.5    999.0   0.00  
 210   16:00  424.0    73   70.7     8    300.8    13.1    999.0   0.00  
 210   16:10  398.0    73   73.3     9    298.3    16.1    999.0   0.00  
 210   16:20  372.0    72   74.3     9    294.1    14.3    999.0   0.00  
 210   16:30  346.0    72   75.6     8    296.9    14.9    999.0   0.00  
 210   16:40  319.0    72   76.1     9    299.5    14.9    999.0   0.00  
 210   16:50  293.0    71   77.0     9    294.7    13.1    999.0   0.00  
 210   17:00  266.0    71   77.0     8    293.0    14.3    999.0   0.00  
 210   17:10  240.0    72   76.4     8    300.8    14.3    999.0   0.00  
 210   17:20  214.0    72   76.0     8    304.1    13.1    999.0   0.00  
 210   17:30  187.0    72   76.0     8    314.2    11.9    999.0   0.00  
 210   17:40  160.0    71   77.1     7    306.8    13.1    999.0   0.00  
 210   17:50  135.0    72   76.0     6    308.3     9.6    999.0   0.00  
 210   18:00  110.0    71   77.6     6    308.9    10.2    999.0   0.00  
 210   18:10   87.0    71   78.3     6    302.7    10.2    999.0   0.00  
 210   18:20   64.0    70   80.3     5    299.7    11.3    999.0   0.00  
 210   18:30   41.0    69   81.2     5    300.0     8.4    999.0   0.00  
 210   18:40   15.0    68   82.5     3    312.2     8.4    999.0   0.00  
 210   18:50   10.0    68   82.6     1     62.3     2.4    999.0   0.00  
 210   19:00    5.0    68   84.2     3     45.5     6.0    999.0   0.00  
 210   19:10    2.0    67   86.0     2     72.8     4.8    999.0   0.00  
 210   19:20    0.0    67   86.8     4     61.2     7.8    999.0   0.00  
 210   19:30    0.0    67   86.9     3    110.7     4.8    999.0   0.00  
 210   19:40    0.0    67   87.5     3    126.7     4.2    999.0   0.00  
 210   19:50    0.0    67   87.6     2     97.5     4.2    999.0   0.00  
 210   20:00    0.0    67   87.9     1    114.5     2.4    999.0   0.00  
 210   20:10    0.0    66   88.2     1    188.6     3.0    999.0   0.00  
 210   20:20    0.0    66   88.5     3    198.7     4.8    999.0   0.00  
 210   20:30    0.0    66   88.8     1    109.8     3.0    999.0   0.00  
 210   20:40    0.0    66   88.9     2    341.8     4.2    999.0   0.00  
 210   20:50    0.0    65   89.4     2    333.3     3.6    999.0   0.00  
 210   21:00    0.0    66   89.4     2    256.7     6.0    999.0   0.00  
 210   21:10    0.0    66   89.2     5    229.6     9.0    999.0   0.00  
 210   21:20    0.0    66   89.4     6    231.4    11.9    999.0   0.00  
 210   21:30    0.0    66   89.3     1     84.1     3.0    999.0   0.00  
 210   21:40    0.0    66   89.4     2    299.7     4.8    999.0   0.00  
 210   21:50    0.0    66   89.1     1    238.1     3.0    999.0   0.00  
 210   22:00    0.0    66   89.2     1    196.7     2.4    999.0   0.00  
 210   22:10    0.0    66   89.3     3    210.9     5.4    999.0   0.00  
 210   22:20    0.0    66   89.2     2    220.3     4.2    999.0   0.00  
 210   22:30    0.0    66   88.8     2    279.4     3.6    999.0   0.00  
 210   22:40    0.0    66   89.2     4    295.0     7.8    999.0   0.00  
 210   22:50    0.0    66   89.6     6    280.4    10.2    999.0   0.00  
 210   23:00    0.0    66   89.7     6    287.6     9.0    999.0   0.00  
 210   23:10    0.0    66   89.5     6    284.1     9.0    999.0   0.00  
 210   23:20    0.0    66   89.6     5    290.4     7.8    999.0   0.00  
 210   23:30    0.0    66   89.3     5    279.6     7.8    999.0   0.00  
 210   23:40    0.0    66   88.9     3    280.3     7.2    999.0   0.00  

Return to Parsons Landing graphs page.


Western Regional Climate Center,wrcc@dri.edu